d.16/8 - Nu er de lyse nætter slut. Synlige planeter lige efter solnedgang, ikke så højt over horisonten: Jupiter mod sydvest, Saturn lidt sydligere og Mars mod sydøst.


Vejr3>N more information Vejr3>N


Vejr3>V more information Vejr3>V


3 timers nedbørs radar more information rain snow radar


besøg nogle andre vejrsider:

Template dokumentation
og downloads

And another site


lokal metar reports

   
EKRK - Roskilde
opdateret: 16-10-2018 10:20
klart  
klart  
   vind: ssø 0.5 m/s
vind: ssø 0.5 m/s
temperatur: 15°C
dugpunkt: 11°C
fugtighed: 77%
barometer: 1017 hPa
skyer: Clear
sigt: 10 km
sky detaljer: klart m
EKRK 160820Z AUTO 20001KT 9999NDV NCD 15/11 Q1017
EKCH - Copenhagen
opdateret: 16-10-2018 10:20
klart  
klart  
   vind: ssø 2.1 m/s
vind: ssø 2.1 m/s
temperatur: 15°C
dugpunkt: 12°C
fugtighed: 82%
barometer: 1017 hPa
sigt: mere end 10 km
sky detaljer: klart m
EKCH 160820Z 15004KT CAVOK 15/12 Q1017 NOSIG
EHBK - Maastricht
opdateret: 16-10-2018 10:25
delvis skyet  
delvis skyet  
   vind: syd 1.5 m/s
vind: syd 1.5 m/s
temperatur: 16°C
dugpunkt: 10°C
fugtighed: 68%
barometer: 1018 hPa
skyer: Partly Cloudy
sigt: mere end 10 km
sky detaljer: delvis skyet m
EHBK 160825Z AUTO 18003KT 130V210 9999 NSC 16/10 Q1018 NOSIG
ELLX - Luxemburg
opdateret: 16-10-2018 10:20
klart  
klart  
   vind: nø 4.6 m/s
vind: nø 4.6 m/s
temperatur: 17°C
dugpunkt: 9°C
fugtighed: 59%
barometer: 1019 hPa
sigt: mere end 10 km
sky detaljer: klart m
ELLX 160820Z 05009KT 010V070 CAVOK 17/09 Q1019 NOSIG
  

script udviklet af  Saratoga-weather.org tilpasset til dette template  Weerstation Leuven

du finder også vores vejrinformationer på:

European Weather Network

Weather Underground

AWEKAS

WeatherlinkIP

Citizen Weather Observer Program (CWOP)

udstyr som vi anvender:

vejrstation
Davis VP2+

vejrprogram
Weather Display

vejrserver
Dell E6400

hjemmeside host
Webhosting.dk

Davis VP2+

Weather Display

Dell E6400

Webhosting.dk